Time;durP1;ratioP1;P1;durP2;ratioP2;P2;SDS_P1;SDS_P2;PMS_P1;PMS_P2;Temp;Humidity;BMP_temperature;BMP_pressure;BME280_temperature;BME280_humidity;BME280_pressure;Samples;Min_cycle;Max_cycle;Signal;HPM_P1;HPM_P2
2023/03/14 00:01:26;;;;;;;2.40;1.20;;;;;;;9.78;55.56;102174.59;106075;1269;1003810;-50
2023/03/14 00:03:55;;;;;;;2.30;1.50;;;;;;;9.79;55.71;102169.92;106805;1269;24268;-50
2023/03/14 00:06:23;;;;;;;5.10;1.50;;;;;;;9.81;55.99;102166.46;106769;1273;22520;-51
2023/03/14 00:08:53;;;;;;;3.20;1.30;;;;;;;9.83;56.04;102165.59;106831;1268;25356;-50
2023/03/14 00:11:22;;;;;;;1.80;1.60;;;;;;;9.83;55.67;102158.31;106833;1268;22518;-50
2023/03/14 00:13:51;;;;;;;1.30;1.10;;;;;;;9.82;55.51;102157.45;106888;1268;25359;-50
2023/03/14 00:16:26;;;;;;;6.10;1.10;;;;;;;9.81;55.41;102153.98;106866;1270;25331;-50
2023/03/14 00:18:57;;;;;;;3.50;1.30;;;;;;;9.81;55.48;102155.54;106909;1270;22526;-50
2023/03/14 00:21:26;;;;;;;2.80;1.50;;;;;;;9.81;55.68;102152.41;106881;1269;24282;-51
2023/03/14 00:23:54;;;;;;;1.40;1.10;;;;;;;9.82;55.49;102145.84;106862;1268;25515;-50
2023/03/14 00:26:23;;;;;;;3.10;1.40;;;;;;;9.83;55.17;102138.03;106737;1270;25396;-50
2023/03/14 00:28:52;;;;;;;3.10;1.30;;;;;;;9.83;55.27;102134.91;107124;1269;25362;-50
2023/03/14 00:31:21;;;;;;;1.90;1.20;;;;;;;9.84;55.19;102131.63;106721;1269;25376;-50
2023/03/14 00:33:51;;;;;;;3.00;1.50;;;;;;;9.84;55.11;102126.42;106904;1271;25415;-50
2023/03/14 00:36:21;;;;;;;1.90;1.50;;;;;;;9.83;55.04;102126.60;106790;1268;24282;-50
2023/03/14 00:38:50;;;;;;;3.00;1.40;;;;;;;9.81;55.01;102121.92;106817;1268;25792;-50
2023/03/14 00:41:24;;;;;;;2.10;1.50;;;;;;;9.79;54.90;102116.70;106885;1268;25367;-50
2023/03/14 00:43:52;;;;;;;3.90;1.50;;;;;;;9.76;55.05;102120.52;106809;1273;25919;-50
2023/03/14 00:46:21;;;;;;;2.80;1.30;;;;;;;9.74;55.27;102118.27;106823;1268;25360;-49
2023/03/14 00:48:50;;;;;;;1.90;1.10;;;;;;;9.74;55.05;102111.85;106875;1268;25403;-50
2023/03/14 00:51:18;;;;;;;3.10;1.60;;;;;;;9.75;55.10;102108.21;106889;1268;25336;-51
2023/03/14 00:53:48;;;;;;;3.50;1.50;;;;;;;9.75;55.18;102109.25;106826;1269;26504;-51
2023/03/14 00:56:17;;;;;;;3.20;1.40;;;;;;;9.76;55.19;102113.41;106782;1256;22521;-50
2023/03/14 00:58:45;;;;;;;2.30;1.50;;;;;;;9.76;55.19;102111.34;106906;1269;25361;-51
2023/03/14 01:01:17;;;;;;;4.40;1.50;;;;;;;9.76;55.14;102109.60;106931;1270;25360;-50
2023/03/14 01:03:46;;;;;;;3.20;1.30;;;;;;;9.75;55.35;102106.31;106857;1253;25278;-50
2023/03/14 01:06:19;;;;;;;5.10;1.70;;;;;;;9.73;55.29;102107.85;106889;1268;25318;-50
2023/03/14 01:08:49;;;;;;;4.90;1.80;;;;;;;9.73;55.19;102105.77;106895;1268;22629;-50
2023/03/14 01:11:22;;;;;;;4.80;1.40;;;;;;;9.72;55.34;102105.27;106762;1252;22771;-50
2023/03/14 01:13:52;;;;;;;1.90;1.30;;;;;;;9.72;55.23;102101.28;106817;1269;24226;-50
2023/03/14 01:16:22;;;;;;;2.60;1.60;;;;;;;9.72;55.10;102102.32;106825;1255;25293;-50
2023/03/14 01:18:53;;;;;;;7.70;2.30;;;;;;;9.72;54.88;102103.01;106091;1268;1003555;-51
2023/03/14 01:21:23;;;;;;;3.40;1.40;;;;;;;9.73;54.59;102102.47;106782;1259;24290;-50
2023/03/14 01:23:53;;;;;;;2.40;1.40;;;;;;;9.73;54.44;102101.27;106814;1268;22524;-50
2023/03/14 01:26:26;;;;;;;5.60;1.80;;;;;;;9.71;54.68;102101.45;106897;1268;25363;-50
2023/03/14 01:28:56;;;;;;;3.60;1.10;;;;;;;9.70;54.80;102104.73;106842;1268;22529;-50
2023/03/14 01:31:25;;;;;;;3.30;1.60;;;;;;;9.69;54.87;102104.89;106811;1269;24209;-50
2023/03/14 01:33:56;;;;;;;3.00;1.40;;;;;;;9.67;54.82;102105.07;106816;1269;25371;-50
2023/03/14 01:36:25;;;;;;;5.50;2.00;;;;;;;9.66;55.01;102101.26;106746;1273;25644;-50
2023/03/14 01:38:55;;;;;;;3.80;1.60;;;;;;;9.66;54.92;102101.77;106817;1268;25345;-50
2023/03/14 01:41:25;;;;;;;4.10;1.60;;;;;;;9.66;54.68;102099.35;106703;1269;25242;-50
2023/03/14 01:43:54;;;;;;;3.20;1.60;;;;;;;9.67;54.87;102099.36;106745;1276;25358;-51
2023/03/14 01:46:45;;;;;;;5.40;1.10;;;;;;;9.67;55.08;102098.30;106890;1268;23907;-50
2023/03/14 01:49:27;;;;;;;4.80;1.40;;;;;;;9.69;55.04;102101.25;105895;1269;1003831;-50
2023/03/14 01:52:36;;;;;;;2.20;1.40;;;;;;;9.71;54.96;102097.80;106651;1268;25422;-51
2023/03/14 01:55:07;;;;;;;3.10;1.50;;;;;;;9.71;54.74;102102.14;105842;1281;1003123;-50
2023/03/14 01:57:41;;;;;;;;;;;;;;;9.71;54.54;102103.17;106269;1275;24552;-50
2023/03/14 02:00:13;;;;;;;2.20;1.50;;;;;;;9.70;54.54;102108.37;106449;1275;24293;-50
2023/03/14 02:02:47;;;;;;;3.90;1.60;;;;;;;9.68;54.86;102107.83;106374;1275;25352;-50
2023/03/14 02:05:23;;;;;;;3.30;1.40;;;;;;;9.65;54.87;102111.65;106264;1274;359745;-51
2023/03/14 02:08:14;;;;;;;1.40;1.20;;;;;;;9.62;54.93;102117.52;106338;1273;25378;-50
2023/03/14 02:11:01;;;;;;;2.60;1.50;;;;;;;9.60;54.84;102127.38;106436;1274;25337;-50
2023/03/14 02:13:57;;;;;;;3.40;1.70;;;;;;;9.58;54.85;102127.71;106488;1274;25533;-50
2023/03/14 02:16:31;;;;;;;3.40;1.50;;;;;;;9.58;55.07;102134.13;106256;1274;25444;-50
2023/03/14 02:19:24;;;;;;;3.10;1.50;;;;;;;9.59;55.03;102139.51;106439;1273;25599;-50
2023/03/14 02:22:14;;;;;;;2.10;1.30;;;;;;;9.60;54.60;102138.30;106525;1274;22602;-51
2023/03/14 02:25:14;;;;;;;3.80;1.10;;;;;;;9.60;54.26;102141.77;106460;1273;26962;-50
2023/03/14 02:27:42;;;;;;;2.90;1.20;;;;;;;9.61;53.94;102146.45;106430;1258;27287;-51
2023/03/14 02:30:22;;;;;;;3.20;1.70;;;;;;;9.61;53.82;102149.73;106504;1274;25386;-50
2023/03/14 02:32:54;;;;;;;1.60;1.30;;;;;;;9.64;53.84;102152.00;106815;1268;22536;-50
2023/03/14 02:35:42;;;;;;;1.80;1.30;;;;;;;9.64;53.59;102152.52;106756;1268;25360;-51
2023/03/14 02:38:21;;;;;;;1.70;1.10;;;;;;;9.61;53.31;102154.42;106609;1275;24417;-50
2023/03/14 02:40:55;;;;;;;2.20;1.30;;;;;;;9.58;53.40;102155.44;106785;1268;25412;-50
2023/03/14 02:43:23;;;;;;;3.90;1.20;;;;;;;9.46;53.98;102149.33;106855;1268;25466;-49
2023/03/14 02:45:57;;;;;;;2.10;1.30;;;;;;;9.42;54.27;102150.33;106787;1268;25334;-50
2023/03/14 02:48:27;;;;;;;6.40;1.50;;;;;;;9.41;54.34;102150.86;106878;1268;25441;-49
2023/03/14 02:50:58;;;;;;;1.80;1.40;;;;;;;9.41;54.67;102148.96;106902;1270;22524;-49
2023/03/14 02:53:31;;;;;;;1.70;1.60;;;;;;;9.43;54.75;102146.37;106833;1270;22643;-49
2023/03/14 02:56:03;;;;;;;3.30;1.60;;;;;;;9.47;54.63;102146.20;106856;1268;25422;-50
2023/03/14 02:58:33;;;;;;;4.60;1.50;;;;;;;9.57;54.34;102146.42;106790;1269;22529;-49
2023/03/14 03:01:21;;;;;;;3.50;1.00;;;;;;;9.59;54.38;102146.43;106826;1268;24202;-50
2023/03/14 03:03:51;;;;;;;6.30;1.50;;;;;;;9.50;54.66;102143.11;106097;1268;1015398;-49
2023/03/14 03:06:20;;;;;;;1.30;1.10;;;;;;;9.49;54.92;102147.77;106829;1273;22521;-49
2023/03/14 03:08:48;;;;;;;2.90;1.30;;;;;;;9.48;54.93;102147.09;106800;1269;25482;-50
2023/03/14 03:11:18;;;;;;;2.10;1.60;;;;;;;9.46;54.94;102150.36;106840;1269;25400;-50
2023/03/14 03:13:47;;;;;;;1.40;1.20;;;;;;;9.44;55.04;102153.29;106862;1274;26495;-49
2023/03/14 03:16:22;;;;;;;5.90;1.30;;;;;;;9.43;55.41;102151.04;106272;1268;1003307;-50
2023/03/14 03:18:52;;;;;;;2.00;1.50;;;;;;;9.43;55.58;102150.34;106833;1268;22527;-50
2023/03/14 03:21:23;;;;;;;3.80;1.50;;;;;;;9.43;55.94;102145.67;106801;1268;22525;-50
2023/03/14 03:23:53;;;;;;;3.10;1.20;;;;;;;9.44;56.04;102144.30;106811;1272;25342;-50
2023/03/14 03:26:22;;;;;;;1.60;1.00;;;;;;;9.45;55.84;102144.46;106698;1271;25360;-50
2023/03/14 03:28:52;;;;;;;4.60;1.50;;;;;;;9.45;55.62;102141.54;106113;1268;1002962;-49
2023/03/14 03:31:20;;;;;;;2.90;1.30;;;;;;;9.47;55.72;102146.38;106862;1269;26164;-50
2023/03/14 03:33:49;;;;;;;3.60;1.10;;;;;;;9.47;55.69;102140.50;106894;1268;23313;-50
2023/03/14 03:36:22;;;;;;;1.90;1.00;;;;;;;9.49;55.62;102137.20;106851;1269;25367;-51
2023/03/14 03:38:50;;;;;;;2.00;1.20;;;;;;;9.51;55.70;102138.61;106860;1268;22526;-51
2023/03/14 03:41:19;;;;;;;3.80;1.20;;;;;;;9.53;56.06;102131.35;106886;1269;25422;-51
2023/03/14 03:43:50;;;;;;;3.00;1.30;;;;;;;9.55;56.39;102133.25;106170;1268;1003152;-50
2023/03/14 03:46:19;;;;;;;1.80;1.10;;;;;;;9.55;56.22;102129.62;106842;1268;24261;-51
2023/03/14 03:48:48;;;;;;;1.80;1.10;;;;;;;9.55;56.02;102128.75;106847;1268;25364;-51
2023/03/14 03:51:17;;;;;;;2.90;1.40;;;;;;;9.54;56.16;102128.39;106869;1268;25349;-51
2023/03/14 03:53:48;;;;;;;1.70;1.00;;;;;;;9.53;56.47;102128.39;106834;1268;25568;-51
2023/03/14 03:56:20;;;;;;;;;;;;;;;9.52;56.61;102125.27;106800;1270;25855;-50
2023/03/14 03:58:48;;;;;;;3.40;1.40;;;;;;;9.51;56.56;102123.20;106794;1268;25373;-51
2023/03/14 04:01:17;;;;;;;4.90;1.40;;;;;;;9.51;56.77;102125.09;106861;1268;22534;-51
2023/03/14 04:03:48;;;;;;;4.30;1.50;;;;;;;9.54;56.67;102121.47;106814;1268;22533;-51
2023/03/14 04:06:18;;;;;;;2.60;1.20;;;;;;;9.57;56.87;102118.89;106705;1268;23899;-51
2023/03/14 04:08:49;;;;;;;2.70;1.20;;;;;;;9.58;56.86;102114.38;106823;1269;22716;-51
2023/03/14 04:11:33;;;;;;;2.00;1.30;;;;;;;9.58;56.96;102109.70;106823;1268;25345;-51
2023/03/14 04:14:23;;;;;;;2.40;1.40;;;;;;;9.59;56.95;102106.41;106580;1269;22513;-51
2023/03/14 04:17:20;;;;;;;1.40;1.10;;;;;;;9.62;57.14;102108.52;106038;1268;1003041;-50
2023/03/14 04:19:53;;;;;;;3.30;1.60;;;;;;;9.65;57.21;102110.09;106840;1268;22526;-51
2023/03/14 04:22:25;;;;;;;2.80;1.20;;;;;;;9.68;57.35;102109.05;106858;1269;22534;-51
2023/03/14 04:24:55;;;;;;;3.60;1.30;;;;;;;9.72;57.36;102113.58;106776;1269;22534;-50
2023/03/14 04:27:24;;;;;;;5.70;1.90;;;;;;;9.73;57.58;102113.23;106043;1268;1002964;-52
2023/03/14 04:29:54;;;;;;;3.50;2.00;;;;;;;9.75;57.78;102115.48;106666;1269;23729;-51
2023/03/14 04:32:56;;;;;;;4.90;1.90;;;;;;;9.78;58.07;102111.16;106752;1271;22605;-51
2023/03/14 04:35:26;;;;;;;1.80;1.30;;;;;;;9.80;58.14;102110.30;106601;1272;24241;-51
2023/03/14 04:37:59;;;;;;;;;;;;;;;9.81;58.22;102114.30;106725;1272;25389;-51
2023/03/14 04:40:30;;;;;;;4.50;1.40;;;;;;;9.82;58.30;102112.56;106718;1272;25489;-50
2023/03/14 04:43:03;;;;;;;7.50;1.90;;;;;;;9.83;58.41;102114.13;106672;1272;25434;-52
2023/03/14 04:45:33;;;;;;;4.30;1.40;;;;;;;9.84;58.65;102119.67;106737;1271;25487;-52
2023/03/14 04:48:04;;;;;;;4.10;1.60;;;;;;;9.86;58.44;102114.82;106688;1272;25331;-52
2023/03/14 04:50:35;;;;;;;3.60;1.50;;;;;;;9.88;58.60;102114.98;106365;1276;25281;-51
2023/03/14 04:53:05;;;;;;;3.20;1.80;;;;;;;9.89;58.51;102116.55;105883;1272;1003199;-51
2023/03/14 04:55:35;;;;;;;5.30;1.60;;;;;;;9.90;58.60;102111.02;106768;1271;24250;-52
2023/03/14 04:58:03;;;;;;;4.20;1.30;;;;;;;9.93;58.81;102108.95;106314;1272;22527;-52
2023/03/14 05:00:33;;;;;;;2.40;1.40;;;;;;;9.94;58.83;102106.88;106677;1271;25370;-52
2023/03/14 05:03:25;;;;;;;9.20;1.90;;;;;;;9.97;58.98;102106.01;106758;1268;25386;-52
2023/03/14 05:06:14;;;;;;;4.90;1.70;;;;;;;10.00;59.15;102105.84;106565;1273;25657;-53
2023/03/14 05:09:04;;;;;;;4.10;1.60;;;;;;;10.02;59.24;102111.05;106861;1268;25361;-51
2023/03/14 05:11:56;;;;;;;3.70;1.70;;;;;;;10.05;59.44;102118.34;106756;1273;25370;-50
2023/03/14 05:14:25;;;;;;;4.40;1.60;;;;;;;10.06;59.45;102118.16;106799;1276;22559;-51
2023/03/14 05:17:24;;;;;;;7.30;1.70;;;;;;;10.09;59.55;102124.77;106857;1268;26756;-51
2023/03/14 05:20:09;;;;;;;6.10;1.60;;;;;;;10.11;59.74;102121.51;106856;1268;25367;-52
2023/03/14 05:22:57;;;;;;;6.10;2.00;;;;;;;10.14;59.81;102120.64;106772;1268;23123;-51
2023/03/14 05:25:50;;;;;;;2.80;1.30;;;;;;;10.19;60.06;102125.86;106939;1268;25370;-51
2023/03/14 05:28:30;;;;;;;3.80;1.70;;;;;;;10.21;60.19;102123.60;106906;1268;25334;-51
2023/03/14 05:31:29;;;;;;;2.90;1.80;;;;;;;10.24;60.28;102126.90;106834;1274;22531;-51
2023/03/14 05:34:21;;;;;;;2.80;1.50;;;;;;;10.29;60.22;102135.76;106625;1269;25412;-50
2023/03/14 05:37:26;;;;;;;2.40;1.50;;;;;;;10.33;60.09;102137.31;106345;1274;26514;-51
2023/03/14 05:40:18;;;;;;;3.50;1.70;;;;;;;10.37;60.05;102139.92;106475;1273;22524;-51
2023/03/14 05:43:04;;;;;;;2.80;1.40;;;;;;;10.40;59.94;102135.92;106284;1273;25403;-50
2023/03/14 05:45:56;;;;;;;3.80;1.60;;;;;;;10.45;59.86;102135.59;106560;1273;25350;-51
2023/03/14 05:48:58;;;;;;;2.00;1.50;;;;;;;10.48;60.01;102126.39;106446;1259;25432;-51
2023/03/14 05:52:09;;;;;;;3.00;1.40;;;;;;;10.53;60.14;102122.59;106109;1280;25380;-52
2023/03/14 05:55:01;;;;;;;;;;;;;;;10.58;60.23;102120.86;106214;1279;26977;-50
2023/03/14 05:57:53;;;;;;;3.50;1.60;;;;;;;10.63;60.18;102120.86;106456;1258;25348;-52
2023/03/14 06:00:30;;;;;;;4.80;2.50;;;;;;;10.67;60.25;102115.29;106416;1274;22527;-51
2023/03/14 06:03:05;;;;;;;3.00;1.60;;;;;;;10.71;60.20;102115.29;106267;1274;24255;-51
2023/03/14 06:05:38;;;;;;;7.40;1.70;;;;;;;10.76;60.05;102117.55;106226;1274;25428;-51
2023/03/14 06:08:07;;;;;;;5.10;1.80;;;;;;;10.85;59.67;102113.89;106229;1275;25416;-51
2023/03/14 06:10:37;;;;;;;3.60;1.60;;;;;;;11.03;59.11;102115.95;106209;1274;25349;-51
2023/03/14 06:13:06;;;;;;;3.20;1.60;;;;;;;11.27;58.11;102116.05;106390;1273;25418;-51
2023/03/14 06:15:35;;;;;;;2.60;1.50;;;;;;;11.51;57.07;102117.36;106725;1272;25342;-51
2023/03/14 06:18:10;;;;;;;3.30;1.70;;;;;;;11.68;56.74;102115.91;105940;1271;1002881;-50
2023/03/14 06:20:39;;;;;;;4.00;2.00;;;;;;;11.83;56.13;102113.25;105951;1272;1002882;-50
2023/03/14 06:23:10;;;;;;;3.30;2.00;;;;;;;12.00;55.73;102109.50;106463;1272;24460;-51
2023/03/14 06:25:38;;;;;;;3.90;1.70;;;;;;;12.18;55.62;102110.06;106729;1276;22543;-52
2023/03/14 06:28:06;;;;;;;3.60;1.60;;;;;;;12.35;55.30;102109.61;106751;1271;25280;-51
2023/03/14 06:30:38;;;;;;;3.50;1.40;;;;;;;12.57;54.65;102105.77;106558;1271;25467;-51
2023/03/14 06:33:08;;;;;;;4.20;1.50;;;;;;;12.85;54.15;102104.29;106293;1276;22520;-50
2023/03/14 06:35:38;;;;;;;4.80;1.90;;;;;;;13.19;53.38;102101.35;106379;1279;25517;-50
2023/03/14 06:38:07;;;;;;;3.20;1.90;;;;;;;13.54;52.50;102103.39;106193;1274;25530;-51
2023/03/14 06:40:36;;;;;;;3.20;1.40;;;;;;;13.84;51.80;102099.32;106146;1274;26527;-49
2023/03/14 06:43:08;;;;;;;4.40;1.40;;;;;;;14.12;51.00;102097.52;106154;1274;25464;-50
2023/03/14 06:45:38;;;;;;;6.50;1.80;;;;;;;14.38;50.15;102096.26;106294;1274;25367;-50
2023/03/14 06:48:11;;;;;;;3.60;1.60;;;;;;;14.63;49.48;102094.95;106725;1271;23194;-50
2023/03/14 06:50:51;;;;;;;3.90;1.70;;;;;;;14.88;48.97;102095.05;106691;1260;25422;-50
2023/03/14 06:53:26;;;;;;;3.50;1.20;;;;;;;15.15;48.09;102102.40;106807;1271;25523;-50
2023/03/14 06:55:56;;;;;;;2.80;1.30;;;;;;;15.37;47.29;102103.70;106349;1279;25275;-50
2023/03/14 06:58:26;;;;;;;2.90;1.10;;;;;;;15.53;46.66;102099.90;106664;1272;24211;-50
2023/03/14 07:00:57;;;;;;;4.10;1.10;;;;;;;15.69;46.19;102095.20;106775;1271;25339;-50
2023/03/14 07:03:27;;;;;;;4.50;1.60;;;;;;;15.85;45.70;102098.33;106752;1274;23900;-52
2023/03/14 07:06:02;;;;;;;5.20;1.10;;;;;;;16.01;45.06;102089.21;106719;1271;26641;-51
2023/03/14 07:08:34;;;;;;;3.60;1.10;;;;;;;16.09;44.28;102086.56;106693;1272;22595;-50
2023/03/14 07:11:03;;;;;;;4.30;1.40;;;;;;;16.12;43.92;102085.63;106675;1271;26501;-51
2023/03/14 07:13:34;;;;;;;;;;;;;;;16.14;43.59;102080.34;106700;1271;25507;-49
2023/03/14 07:16:07;;;;;;;4.00;1.50;;;;;;;16.16;43.17;102075.21;106864;1271;25370;-49
2023/03/14 07:18:37;;;;;;;2.50;1.00;;;;;;;16.14;43.18;102077.00;106990;1268;24198;-51
2023/03/14 07:21:08;;;;;;;4.20;1.20;;;;;;;16.11;43.56;102069.20;106943;1268;25361;-51
2023/03/14 07:23:38;;;;;;;2.80;1.40;;;;;;;16.05;43.89;102067.25;106947;1268;24572;-51
2023/03/14 07:26:07;;;;;;;5.10;1.80;;;;;;;15.93;44.22;102068.58;106774;1270;22526;-50
2023/03/14 07:28:37;;;;;;;4.00;1.80;;;;;;;15.80;44.28;102063.98;107010;1268;25374;-50
2023/03/14 07:31:09;;;;;;;4.10;2.00;;;;;;;15.64;44.35;102062.59;106823;1272;26597;-51
2023/03/14 07:33:38;;;;;;;3.70;1.50;;;;;;;15.45;44.45;102063.52;106093;1253;1002944;-51
2023/03/14 07:36:07;;;;;;;4.40;1.90;;;;;;;15.27;44.58;102060.73;106932;1268;25345;-51
2023/03/14 07:38:36;;;;;;;4.20;1.80;;;;;;;15.07;44.58;102064.61;106977;1268;25345;-50
2023/03/14 07:41:20;;;;;;;3.50;1.80;;;;;;;14.86;44.66;102061.02;106952;1268;25382;-51
2023/03/14 07:44:08;;;;;;;3.70;2.00;;;;;;;14.64;44.99;102062.98;106933;1273;25348;-51
2023/03/14 07:46:37;;;;;;;2.60;1.80;;;;;;;14.46;45.28;102063.83;106299;1268;1003501;-51
2023/03/14 07:49:06;;;;;;;3.60;1.70;;;;;;;14.32;45.70;102062.13;106968;1269;25364;-50
2023/03/14 07:51:38;;;;;;;5.70;1.90;;;;;;;14.20;45.98;102060.04;106818;1271;25440;-50
2023/03/14 07:54:07;;;;;;;4.90;2.20;;;;;;;14.08;45.76;102061.44;106995;1272;22569;-51
2023/03/14 07:56:36;;;;;;;5.90;1.90;;;;;;;13.98;45.44;102058.13;106956;1268;24268;-51
2023/03/14 07:59:04;;;;;;;4.50;2.00;;;;;;;13.85;45.56;102061.09;107066;1268;25345;-51
2023/03/14 08:01:33;;;;;;;4.30;1.80;;;;;;;13.74;45.93;102055.17;106902;1268;25447;-51
2023/03/14 08:04:02;;;;;;;4.00;1.40;;;;;;;13.64;46.04;102052.69;105894;1276;1002913;-50
2023/03/14 08:06:31;;;;;;;3.50;2.00;;;;;;;13.56;46.33;102046.52;106827;1274;22519;-50
2023/03/14 08:08:59;;;;;;;5.80;1.90;;;;;;;13.48;46.39;102041.73;106949;1268;24386;-50
2023/03/14 08:11:29;;;;;;;2.80;1.50;;;;;;;13.41;46.08;102041.31;106924;1268;25353;-50
2023/03/14 08:13:57;;;;;;;3.10;1.40;;;;;;;13.34;46.18;102037.05;106695;1276;23878;-51
2023/03/14 08:16:26;;;;;;;3.40;1.60;;;;;;;13.27;46.20;102035.06;106680;1269;22521;-50
2023/03/14 08:18:56;;;;;;;4.80;2.00;;;;;;;13.21;46.50;102030.08;106891;1268;25420;-50
2023/03/14 08:21:25;;;;;;;3.30;1.60;;;;;;;13.16;46.88;102026.14;106834;1274;25352;-50
2023/03/14 08:23:58;;;;;;;5.30;1.60;;;;;;;13.12;46.81;102024.45;106900;1269;26517;-51
2023/03/14 08:26:26;;;;;;;6.00;1.70;;;;;;;13.08;47.11;102024.30;106786;1269;22532;-51
2023/03/14 08:28:55;;;;;;;3.40;1.40;;;;;;;13.04;47.33;102021.56;106941;1268;25346;-50
2023/03/14 08:31:23;;;;;;;4.70;2.00;;;;;;;13.02;47.42;102020.33;106968;1269;25373;-50
2023/03/14 08:33:53;;;;;;;6.30;1.90;;;;;;;13.00;47.23;102018.27;106935;1273;25557;-50
2023/03/14 08:36:23;;;;;;;3.00;2.00;;;;;;;12.98;47.31;102019.33;106937;1269;24282;-49
2023/03/14 08:38:51;;;;;;;2.50;1.40;;;;;;;12.98;47.64;102017.24;106795;1269;26689;-51
2023/03/14 08:44:09;;;;;;;3.80;1.70;;;;;;;12.42;48.66;102014.84;104750;1295;559355;-47
2023/03/14 08:46:37;;;;;;;3.60;1.60;;;;;;;12.94;47.50;102015.89;105978;1281;25453;-46
2023/03/14 08:49:10;;;;;;;8.30;3.00;;;;;;;12.98;47.16;102019.68;106770;1273;25890;-47
2023/03/14 08:51:40;;;;;;;4.70;1.60;;;;;;;13.00;47.50;102021.92;106705;1273;25417;-47
2023/03/14 08:54:10;;;;;;;5.30;1.90;;;;;;;13.02;47.39;102024.86;106678;1280;25413;-47
2023/03/14 08:56:39;;;;;;;3.40;1.90;;;;;;;13.04;47.60;102025.90;106620;1273;227460;-47
2023/03/14 08:59:06;;;;;;;4.20;1.80;;;;;;;13.05;47.33;102027.63;106680;1270;25377;-47
2023/03/14 09:01:33;;;;;;;5.10;1.90;;;;;;;13.07;47.31;102025.70;106095;1273;1003312;-47
2023/03/14 09:04:01;;;;;;;9.10;2.20;;;;;;;13.08;47.16;102022.19;107075;1266;25353;-47
2023/03/14 09:06:31;;;;;;;3.80;1.70;;;;;;;13.10;47.03;102015.23;107143;1266;25367;-47
2023/03/14 09:09:01;;;;;;;8.80;1.90;;;;;;;13.11;46.76;102012.25;107100;1266;25335;-47
2023/03/14 09:11:28;;;;;;;3.70;1.50;;;;;;;13.13;46.54;102013.27;107062;1269;25328;-47
2023/03/14 09:13:57;;;;;;;4.80;2.20;;;;;;;13.14;46.02;102011.69;107024;1266;25552;-47
2023/03/14 09:16:24;;;;;;;4.10;1.70;;;;;;;13.14;45.55;102010.98;106741;1266;25413;-47
2023/03/14 09:18:54;;;;;;;2.20;1.60;;;;;;;13.13;45.51;102003.16;107143;1266;25405;-47
2023/03/14 09:21:27;;;;;;;5.90;1.70;;;;;;;13.12;45.31;102007.54;107178;1266;25419;-47
2023/03/14 09:23:55;;;;;;;3.60;1.60;;;;;;;13.11;45.16;102007.20;107023;1266;23153;-47
2023/03/14 09:26:22;;;;;;;3.20;1.30;;;;;;;13.13;45.10;102003.69;106823;1270;25419;-47
2023/03/14 09:28:50;;;;;;;4.40;1.70;;;;;;;13.14;45.00;102001.58;107124;1268;25376;-47
2023/03/14 09:31:17;;;;;;;4.60;1.90;;;;;;;13.14;45.01;101997.58;107082;1266;24195;-47
2023/03/14 09:33:46;;;;;;;3.50;2.20;;;;;;;13.15;45.29;101992.86;107060;1267;25448;-47
2023/03/14 09:36:14;;;;;;;3.30;2.00;;;;;;;13.18;45.63;101993.35;106143;1270;1003077;-47
2023/03/14 09:38:41;;;;;;;2.10;1.30;;;;;;;13.20;45.42;101993.50;107043;1268;25416;-47
2023/03/14 09:41:18;;;;;;;3.90;1.40;;;;;;;13.22;44.86;101991.37;107112;1274;25335;-47
2023/03/14 09:43:46;;;;;;;3.70;1.70;;;;;;;13.24;44.64;101986.13;107064;1266;25401;-47
2023/03/14 09:46:13;;;;;;;5.40;1.40;;;;;;;13.24;44.86;101984.90;107072;1266;25447;-47
2023/03/14 09:48:43;;;;;;;8.70;1.70;;;;;;;13.25;44.98;101981.75;107016;1267;26487;-46
2023/03/14 09:51:15;;;;;;;3.30;1.30;;;;;;;13.27;45.16;101977.36;107111;1266;25338;-47
2023/03/14 09:53:44;;;;;;;5.30;1.80;;;;;;;13.30;45.35;101974.71;107182;1267;25368;-47
2023/03/14 09:56:25;;;;;;;8.30;1.70;;;;;;;13.32;45.19;101971.73;107055;1267;25413;-47
2023/03/14 09:58:57;;;;;;;3.90;2.10;;;;;;;13.33;45.36;101964.56;107166;1266;26506;-47
2023/03/14 10:01:27;;;;;;;2.20;1.60;;;;;;;13.37;45.37;101959.11;107114;1267;22632;-47
2023/03/14 10:04:01;;;;;;;3.10;1.30;;;;;;;13.45;45.01;101945.72;107073;1267;23295;-47
2023/03/14 10:06:30;;;;;;;4.50;1.60;;;;;;;13.49;44.79;101942.88;107025;1267;22526;-48
2023/03/14 10:08:57;;;;;;;2.10;1.30;;;;;;;13.52;44.71;101941.27;107038;1270;24315;-47
2023/03/14 10:11:25;;;;;;;3.60;1.60;;;;;;;13.56;44.62;101930.77;107094;1267;25338;-47
2023/03/14 10:14:08;;;;;;;8.00;1.90;;;;;;;13.51;44.70;101924.91;107119;1269;25406;-47
2023/03/14 10:16:37;;;;;;;2.70;1.40;;;;;;;13.50;44.52;101917.25;106770;1270;22533;-47
2023/03/14 10:19:11;;;;;;;3.40;1.40;;;;;;;13.53;44.41;101917.38;107085;1267;25409;-47
2023/03/14 10:21:41;;;;;;;4.00;1.40;;;;;;;13.55;43.84;101910.38;107101;1268;25415;-47
2023/03/14 10:24:20;;;;;;;3.40;1.70;;;;;;;13.56;43.62;101902.51;107068;1268;24632;-46
2023/03/14 10:26:55;;;;;;;4.40;1.30;;;;;;;13.57;43.22;101896.74;106878;1270;24255;-47
2023/03/14 10:29:22;;;;;;;2.50;1.40;;;;;;;13.57;42.58;101891.16;106342;1268;1003089;-47
2023/03/14 10:32:04;;;;;;;2.80;1.40;;;;;;;13.57;42.40;101885.23;107146;1268;25415;-47
2023/03/14 10:34:36;;;;;;;2.10;1.40;;;;;;;13.57;42.29;101883.66;107049;1267;24217;-47
2023/03/14 10:37:07;;;;;;;;;;;;;;;13.59;42.23;101877.70;106382;1268;1003484;-47
2023/03/14 10:39:43;;;;;;;3.20;1.30;;;;;;;13.59;42.24;101873.70;107029;1267;25387;-47
2023/03/14 10:42:19;;;;;;;5.90;1.70;;;;;;;13.59;41.98;101866.20;106374;1269;1003017;-47
2023/03/14 10:44:48;;;;;;;3.20;1.40;;;;;;;13.59;41.79;101859.92;107169;1266;24035;-47
2023/03/14 10:47:18;;;;;;;4.00;1.60;;;;;;;13.60;41.95;101853.45;107118;1272;25415;-47
2023/03/14 10:49:54;;;;;;;3.10;1.40;;;;;;;13.62;41.83;101849.77;107107;1267;25339;-47
2023/03/14 10:52:26;;;;;;;3.60;1.90;;;;;;;13.64;41.73;101843.09;106847;1271;25563;-47
2023/03/14 10:55:11;;;;;;;3.10;1.70;;;;;;;13.66;41.80;101838.71;107153;1269;25363;-48
2023/03/14 10:57:42;;;;;;;4.10;1.90;;;;;;;13.66;41.72;101835.21;106896;1271;25434;-47
2023/03/14 11:00:21;;;;;;;3.80;1.40;;;;;;;13.65;41.79;101827.39;107188;1269;26541;-48
2023/03/14 11:03:03;;;;;;;3.80;1.80;;;;;;;13.61;41.83;101827.46;107050;1268;24253;-47
2023/03/14 11:05:41;;;;;;;3.90;1.70;;;;;;;13.59;41.68;101819.65;106294;1267;1003603;-47
2023/03/14 11:08:15;;;;;;;5.70;2.10;;;;;;;13.57;41.22;101816.90;107084;1267;25340;-47
2023/03/14 11:10:43;;;;;;;;;;;;;;;13.53;41.26;101812.08;106846;1274;24366;-47
2023/03/14 11:13:25;;;;;;;3.80;1.90;;;;;;;13.47;41.54;101807.99;107079;1267;24256;-47
2023/03/14 11:16:13;;;;;;;3.60;2.00;;;;;;;13.39;41.38;101805.52;106970;1270;25376;-48
2023/03/14 11:18:47;;;;;;;5.20;2.20;;;;;;;13.32;42.27;101806.68;107146;1267;25387;-47
2023/03/14 11:21:35;;;;;;;3.60;1.90;;;;;;;13.28;43.07;101809.01;107091;1268;24245;-47
2023/03/14 11:24:28;;;;;;;2.90;1.80;;;;;;;13.24;43.38;101809.27;107086;1268;25363;-47
2023/03/14 11:27:17;;;;;;;5.30;1.90;;;;;;;13.19;43.20;101808.13;106826;1267;25356;-47
2023/03/14 11:29:50;;;;;;;5.60;1.80;;;;;;;13.13;42.66;101811.17;106860;1274;25408;-47
2023/03/14 11:33:00;;;;;;;5.00;1.80;;;;;;;13.07;42.40;101802.54;107082;1267;25424;-48
2023/03/14 11:35:34;;;;;;;5.80;2.00;;;;;;;13.05;42.29;101801.54;106330;1260;25480;-48
2023/03/14 11:38:11;;;;;;;5.20;2.10;;;;;;;13.07;41.93;101801.85;106420;1273;25483;-48
2023/03/14 11:40:38;;;;;;;4.10;1.90;;;;;;;13.09;41.80;101796.07;106530;1275;25922;-47
2023/03/14 11:43:08;;;;;;;5.30;2.40;;;;;;;13.12;41.64;101792.72;106440;1277;25507;-47
2023/03/14 11:45:38;;;;;;;3.60;2.10;;;;;;;13.18;41.40;101792.81;106660;1274;25410;-47
2023/03/14 11:48:41;;;;;;;3.30;1.80;;;;;;;13.23;40.78;101789.94;106680;1273;25398;-48
2023/03/14 11:51:29;;;;;;;4.70;3.30;;;;;;;13.27;40.47;101788.29;106639;1274;25545;-47
2023/03/14 11:54:02;;;;;;;3.50;2.00;;;;;;;13.30;40.27;101783.19;106486;1276;25335;-47
2023/03/14 11:56:41;;;;;;;3.40;2.00;;;;;;;13.33;40.18;101779.30;106579;1273;25355;-47